Time;durP1;ratioP1;P1;durP2;ratioP2;P2;SDS_P1;SDS_P2;PMS_P1;PMS_P2;Temp;Humidity;BMP_temperature;BMP_pressure;BME280_temperature;BME280_humidity;BME280_pressure;Samples;Min_cycle;Max_cycle;Signal;HPM_P1;HPM_P2
2021/11/06 00:01:11;;;;;;;9.80;6.37;;;;;;;;;;5052460;28;20297;-67
2021/11/06 00:03:37;;;;;;;11.37;6.80;;;;;;;;;;5052898;28;20210;-67
2021/11/06 00:06:04;;;;;;;10.67;6.27;;;;;;;;;;5052899;28;20545;-67
2021/11/06 00:08:30;;;;;;;12.90;6.77;;;;;;;;;;5053126;28;20301;-67
2021/11/06 00:10:56;;;;;;;11.73;6.10;;;;;;;;;;5052180;28;20241;-68
2021/11/06 00:13:23;;;;;;;12.40;7.20;;;;;;;;;;5051627;28;20679;-67
2021/11/06 00:15:49;;;;;;;12.83;7.13;;;;;;;;;;5052402;28;20254;-68
2021/11/06 00:18:16;;;;;;;11.70;6.53;;;;;;;;;;5052718;28;20209;-67
2021/11/06 00:20:42;;;;;;;11.60;6.37;;;;;;;;;;5052167;28;20987;-68
2021/11/06 00:23:09;;;;;;;12.07;6.53;;;;;;;;;;5053252;28;20213;-67
2021/11/06 00:25:35;;;;;;;11.67;6.70;;;;;;;;;;5052911;28;20232;-66
2021/11/06 00:28:02;;;;;;;15.70;7.70;;;;;;;;;;5052472;28;20205;-67
2021/11/06 00:30:28;;;;;;;13.87;7.37;;;;;;;;;;5051649;28;20698;-68
2021/11/06 00:32:55;;;;;;;12.10;7.03;;;;;;;;;;5049459;28;20201;-66
2021/11/06 00:35:22;;;;;;;13.80;6.63;;;;;;;;;;5042725;28;20234;-65
2021/11/06 00:37:53;;;;;;;13.33;7.17;;;;;;;;;;5050465;28;20213;-66
2021/11/06 00:40:19;;;;;;;14.23;7.37;;;;;;;;;;5051068;28;20206;-69
2021/11/06 00:42:46;;;;;;;14.90;8.23;;;;;;;;;;5050418;28;20202;-68
2021/11/06 00:45:13;;;;;;;12.93;7.50;;;;;;;;;;5033754;28;20606;-68
2021/11/06 00:47:40;;;;;;;11.50;7.03;;;;;;;;;;5051399;28;20209;-67
2021/11/06 00:50:07;;;;;;;17.07;7.30;;;;;;;;;;5050968;28;20411;-67
2021/11/06 00:52:34;;;;;;;13.50;7.13;;;;;;;;;;5051823;28;20210;-66
2021/11/06 00:55:00;;;;;;;11.77;7.23;;;;;;;;;;5051497;28;20217;-65
2021/11/06 00:57:28;;;;;;;13.13;7.47;;;;;;;;;;5052215;28;20576;-67
2021/11/06 00:59:54;;;;;;;14.40;7.87;;;;;;;;;;5051524;28;20339;-67
2021/11/06 01:35:11;;;;;;;13.90;7.70;;;;;;;;;;5089544;28;20532;-67
2021/11/06 01:37:38;;;;;;;11.30;7.37;;;;;;;;;;5089810;28;20197;-67
2021/11/06 01:40:06;;;;;;;11.47;6.20;;;;;;;;;;5087595;28;20236;-67
2021/11/06 01:42:33;;;;;;;16.47;6.90;;;;;;;;;;5086823;28;20608;-68
2021/11/06 01:44:59;;;;;;;12.17;7.00;;;;;;;;;;5088364;28;20745;-67
2021/11/06 01:47:26;;;;;;;13.33;7.43;;;;;;;;;;5088795;28;20235;-68
2021/11/06 01:49:54;;;;;;;13.00;7.30;;;;;;;;;;5088095;28;20593;-67
2021/11/06 01:52:20;;;;;;;10.23;6.30;;;;;;;;;;5089037;28;20671;-68
2021/11/06 01:54:48;;;;;;;12.03;7.27;;;;;;;;;;5087761;28;20235;-67
2021/11/06 01:57:15;;;;;;;12.63;7.00;;;;;;;;;;5089094;28;20197;-67
2021/11/06 01:59:41;;;;;;;10.77;6.20;;;;;;;;;;5087443;28;20212;-67
2021/11/06 02:02:09;;;;;;;9.30;6.30;;;;;;;;;;5089091;28;20741;-67
2021/11/06 02:04:36;;;;;;;13.43;6.97;;;;;;;;;;5089203;28;20213;-68
2021/11/06 02:07:03;;;;;;;12.23;7.07;;;;;;;;;;5089073;28;20244;-68
2021/11/06 02:09:29;;;;;;;10.87;6.63;;;;;;;;;;5088783;28;20205;-67
2021/11/06 02:11:57;;;;;;;11.97;7.37;;;;;;;;;;5089256;28;20207;-67
2021/11/06 02:14:24;;;;;;;13.37;7.00;;;;;;;;;;5088439;28;20238;-67
2021/11/06 02:16:52;;;;;;;13.73;7.07;;;;;;;;;;5089105;28;20658;-68
2021/11/06 02:19:24;;;;;;;12.20;7.10;;;;;;;;;;5089154;28;20291;-68
2021/11/06 02:21:52;;;;;;;12.07;6.53;;;;;;;;;;5088687;28;20283;-68
2021/11/06 02:24:18;;;;;;;13.70;7.57;;;;;;;;;;5088505;28;20570;-67
2021/11/06 02:26:46;;;;;;;15.27;6.27;;;;;;;;;;5071735;28;20291;-68
2021/11/06 02:29:12;;;;;;;11.87;6.57;;;;;;;;;;5068750;28;20209;-67
2021/11/06 02:31:39;;;;;;;11.47;6.27;;;;;;;;;;5067522;28;20732;-67
2021/11/06 02:34:06;;;;;;;10.83;6.97;;;;;;;;;;5068234;28;20607;-67
2021/11/06 02:36:32;;;;;;;9.73;5.90;;;;;;;;;;5067996;28;20201;-67
2021/11/06 02:38:59;;;;;;;10.57;6.40;;;;;;;;;;5068410;28;20296;-68
2021/11/06 02:41:26;;;;;;;15.83;6.53;;;;;;;;;;5067444;28;20201;-68
2021/11/06 02:43:55;;;;;;;13.47;7.50;;;;;;;;;;5068217;28;20291;-68
2021/11/06 02:46:22;;;;;;;10.70;6.40;;;;;;;;;;5057437;28;20202;-68
2021/11/06 02:48:48;;;;;;;9.57;5.67;;;;;;;;;;5073361;28;20205;-68
2021/11/06 02:51:15;;;;;;;10.13;6.33;;;;;;;;;;5074002;28;20670;-68
2021/11/06 02:53:41;;;;;;;12.27;6.70;;;;;;;;;;5074750;28;20231;-67
2021/11/06 02:56:07;;;;;;;14.80;7.57;;;;;;;;;;5074501;28;20201;-67
2021/11/06 02:58:34;;;;;;;12.30;7.07;;;;;;;;;;5074031;28;20213;-68
2021/11/06 03:01:01;;;;;;;15.13;8.30;;;;;;;;;;5073845;28;20205;-68
2021/11/06 03:03:27;;;;;;;15.13;7.27;;;;;;;;;;5074581;28;20223;-69
2021/11/06 03:05:54;;;;;;;15.00;7.53;;;;;;;;;;5073908;28;20233;-68
2021/11/06 03:08:20;;;;;;;13.30;7.13;;;;;;;;;;5073961;28;20208;-67
2021/11/06 03:10:46;;;;;;;13.30;6.87;;;;;;;;;;5073083;28;20395;-70
2021/11/06 03:13:13;;;;;;;12.23;7.53;;;;;;;;;;5073711;28;20205;-68
2021/11/06 03:15:39;;;;;;;14.23;7.40;;;;;;;;;;5073508;28;20702;-67
2021/11/06 03:18:06;;;;;;;12.23;7.80;;;;;;;;;;5073805;28;20205;-71
2021/11/06 03:20:32;;;;;;;9.63;5.87;;;;;;;;;;5073227;28;20207;-68
2021/11/06 03:22:59;;;;;;;14.83;7.37;;;;;;;;;;5073590;28;20337;-68
2021/11/06 03:25:26;;;;;;;12.40;6.57;;;;;;;;;;5073421;28;20225;-68
2021/11/06 03:27:52;;;;;;;11.13;5.90;;;;;;;;;;5073256;28;20227;-68
2021/11/06 03:30:19;;;;;;;16.63;7.33;;;;;;;;;;5072873;28;20243;-67
2021/11/06 03:32:45;;;;;;;11.63;6.27;;;;;;;;;;5073353;28;20206;-70
2021/11/06 03:35:12;;;;;;;11.80;6.27;;;;;;;;;;5055459;28;20256;-68
2021/11/06 03:37:38;;;;;;;9.43;5.67;;;;;;;;;;5073191;28;20210;-69
2021/11/06 03:40:05;;;;;;;12.23;6.63;;;;;;;;;;5072512;28;20284;-68
2021/11/06 03:42:32;;;;;;;9.83;6.17;;;;;;;;;;5073240;28;20769;-69
2021/11/06 03:44:58;;;;;;;12.43;6.57;;;;;;;;;;5073278;28;20229;-68
2021/11/06 03:47:24;;;;;;;12.20;7.13;;;;;;;;;;5062280;28;20237;-68
2021/11/06 03:49:54;;;;;;;10.70;6.60;;;;;;;;;;5052409;28;20214;-67
2021/11/06 03:52:21;;;;;;;10.37;5.97;;;;;;;;;;5051811;28;20329;-68
2021/11/06 03:54:47;;;;;;;10.23;6.17;;;;;;;;;;5052851;28;20240;-68
2021/11/06 03:57:13;;;;;;;10.43;6.53;;;;;;;;;;5051698;28;20205;-68
2021/11/06 03:59:40;;;;;;;9.93;5.87;;;;;;;;;;5069697;28;20201;-69
2021/11/06 04:02:06;;;;;;;10.70;5.63;;;;;;;;;;5071653;28;20622;-67
2021/11/06 04:04:32;;;;;;;10.20;5.73;;;;;;;;;;5072699;28;20225;-68
2021/11/06 04:06:59;;;;;;;11.43;6.17;;;;;;;;;;5082901;28;20300;-68
2021/11/06 04:09:25;;;;;;;9.00;5.77;;;;;;;;;;5079082;28;20283;-68
2021/11/06 04:11:52;;;;;;;11.67;6.27;;;;;;;;;;5072914;28;20212;-69
2021/11/06 04:14:19;;;;;;;11.03;6.17;;;;;;;;;;5072311;28;20716;-68
2021/11/06 04:16:45;;;;;;;8.77;6.00;;;;;;;;;;5072395;28;20575;-68
2021/11/06 04:19:11;;;;;;;11.97;6.37;;;;;;;;;;5072532;28;20197;-68
2021/11/06 04:21:39;;;;;;;9.77;5.93;;;;;;;;;;5071831;28;20202;-67
2021/11/06 04:24:05;;;;;;;10.07;6.20;;;;;;;;;;5072075;28;20239;-69
2021/11/06 04:26:32;;;;;;;9.03;6.07;;;;;;;;;;5072990;28;20316;-68
2021/11/06 04:28:58;;;;;;;13.63;6.47;;;;;;;;;;5073130;28;20245;-67
2021/11/06 04:31:24;;;;;;;10.87;6.53;;;;;;;;;;5071528;28;20852;-66
2021/11/06 04:33:51;;;;;;;9.90;6.33;;;;;;;;;;5070914;28;20232;-69
2021/11/06 04:36:17;;;;;;;11.27;6.07;;;;;;;;;;5072185;28;20201;-68
2021/11/06 04:38:44;;;;;;;9.37;5.50;;;;;;;;;;5072122;28;20213;-68
2021/11/06 04:41:10;;;;;;;9.47;6.07;;;;;;;;;;5070285;28;20200;-68
2021/11/06 04:43:38;;;;;;;9.20;5.77;;;;;;;;;;5070705;28;20197;-68
2021/11/06 04:46:05;;;;;;;9.80;5.97;;;;;;;;;;5072098;28;20205;-68
2021/11/06 04:48:31;;;;;;;7.97;4.73;;;;;;;;;;5051992;28;20212;-68
2021/11/06 04:50:57;;;;;;;9.07;4.73;;;;;;;;;;5051169;28;20206;-69
2021/11/06 04:53:24;;;;;;;14.00;5.47;;;;;;;;;;5051629;28;20206;-68
2021/11/06 04:55:55;;;;;;;6.93;4.63;;;;;;;;;;5051937;28;20229;-68
2021/11/06 04:58:21;;;;;;;7.90;4.90;;;;;;;;;;5058325;28;20201;-68
2021/11/06 05:00:48;;;;;;;6.57;4.07;;;;;;;;;;5071296;28;20205;-69
2021/11/06 05:03:15;;;;;;;7.90;3.70;;;;;;;;;;5071771;28;20270;-68
2021/11/06 05:05:41;;;;;;;7.90;4.10;;;;;;;;;;5070612;28;20229;-69
2021/11/06 05:08:07;;;;;;;6.03;4.00;;;;;;;;;;5071521;28;20240;-69
2021/11/06 05:10:34;;;;;;;8.10;4.47;;;;;;;;;;5071161;28;20222;-69
2021/11/06 05:13:00;;;;;;;6.80;3.60;;;;;;;;;;5071503;28;20287;-69
2021/11/06 05:15:26;;;;;;;8.40;3.67;;;;;;;;;;5071364;28;20229;-70
2021/11/06 05:17:54;;;;;;;6.23;4.07;;;;;;;;;;5071528;28;20292;-69
2021/11/06 05:20:20;;;;;;;7.13;4.13;;;;;;;;;;5070677;28;20207;-70
2021/11/06 05:22:47;;;;;;;8.50;5.10;;;;;;;;;;5071733;28;20208;-68
2021/11/06 05:25:13;;;;;;;9.33;4.70;;;;;;;;;;5071524;28;20342;-69
2021/11/06 05:27:39;;;;;;;7.87;4.73;;;;;;;;;;5071510;28;20232;-69
2021/11/06 05:30:07;;;;;;;11.40;5.27;;;;;;;;;;5070852;28;20301;-69
2021/11/06 05:32:34;;;;;;;10.07;5.53;;;;;;;;;;5071453;28;20209;-69
2021/11/06 05:35:02;;;;;;;10.93;6.00;;;;;;;;;;5071078;28;20231;-69
2021/11/06 05:37:28;;;;;;;9.97;5.30;;;;;;;;;;5071303;28;20761;-68
2021/11/06 05:39:55;;;;;;;9.47;5.43;;;;;;;;;;5070527;28;20219;-69
2021/11/06 05:42:21;;;;;;;9.20;5.13;;;;;;;;;;5071283;28;20211;-70
2021/11/06 05:44:47;;;;;;;11.63;6.13;;;;;;;;;;5071245;28;20224;-68
2021/11/06 05:47:14;;;;;;;11.13;6.17;;;;;;;;;;5061903;28;20197;-69
2021/11/06 05:49:40;;;;;;;8.73;5.93;;;;;;;;;;5050452;28;20638;-68
2021/11/06 05:52:27;;;;;;;12.00;6.17;;;;;;;;;;5051562;28;20209;-68
2021/11/06 05:54:53;;;;;;;11.40;7.00;;;;;;;;;;5051747;28;20234;-69
2021/11/06 05:57:19;;;;;;;11.27;6.30;;;;;;;;;;5052556;28;20202;-68
2021/11/06 05:59:46;;;;;;;8.07;5.33;;;;;;;;;;5067566;28;20283;-68
2021/11/06 06:02:12;;;;;;;8.80;4.83;;;;;;;;;;5071253;28;20205;-69
2021/11/06 06:04:38;;;;;;;8.90;4.80;;;;;;;;;;5071292;28;20222;-67
2021/11/06 06:07:05;;;;;;;7.73;4.90;;;;;;;;;;5071190;28;20205;-69
2021/11/06 06:09:31;;;;;;;8.80;4.77;;;;;;;;;;5070507;28;20209;-68
2021/11/06 06:11:58;;;;;;;6.20;4.10;;;;;;;;;;5071079;28;20209;-68
2021/11/06 06:14:24;;;;;;;8.40;5.00;;;;;;;;;;5070644;28;20240;-68
2021/11/06 06:16:50;;;;;;;8.10;4.83;;;;;;;;;;5070783;28;20205;-68
2021/11/06 06:19:17;;;;;;;8.17;4.63;;;;;;;;;;5071111;28;20204;-68
2021/11/06 06:21:43;;;;;;;9.27;4.87;;;;;;;;;;5073548;28;20211;-68
2021/11/06 06:24:09;;;;;;;7.07;4.60;;;;;;;;;;5074564;28;20232;-69
2021/11/06 06:26:36;;;;;;;8.03;4.77;;;;;;;;;;5073622;28;20197;-68
2021/11/06 06:29:02;;;;;;;9.53;5.47;;;;;;;;;;5075190;28;20216;-69
2021/11/06 06:31:35;;;;;;;9.60;5.43;;;;;;;;;;5075110;28;20201;-68
2021/11/06 06:34:01;;;;;;;9.13;5.20;;;;;;;;;;5073802;28;20665;-69
2021/11/06 06:36:28;;;;;;;7.37;4.77;;;;;;;;;;5075106;28;20201;-69
2021/11/06 06:38:54;;;;;;;12.20;5.70;;;;;;;;;;5074861;28;20197;-68
2021/11/06 06:41:20;;;;;;;9.00;5.40;;;;;;;;;;5073967;28;20205;-69
2021/11/06 06:43:47;;;;;;;12.23;6.33;;;;;;;;;;5073286;28;20201;-67
2021/11/06 06:46:13;;;;;;;9.87;5.80;;;;;;;;;;5073972;28;20662;-68
2021/11/06 06:48:40;;;;;;;11.83;6.50;;;;;;;;;;5054843;28;20206;-68
2021/11/06 06:51:06;;;;;;;10.67;5.93;;;;;;;;;;5054147;28;20206;-69
2021/11/06 06:53:32;;;;;;;10.73;5.37;;;;;;;;;;5054921;28;20208;-68
2021/11/06 06:55:59;;;;;;;9.37;5.13;;;;;;;;;;5055168;28;20234;-68
2021/11/06 06:58:25;;;;;;;9.97;5.20;;;;;;;;;;5062405;28;20209;-68
2021/11/06 07:00:51;;;;;;;10.57;5.33;;;;;;;;;;5074726;28;20201;-68
2021/11/06 07:03:18;;;;;;;10.53;5.70;;;;;;;;;;5074312;28;20197;-66
2021/11/06 07:05:44;;;;;;;11.03;5.50;;;;;;;;;;5073669;28;20741;-66
2021/11/06 07:08:11;;;;;;;10.97;6.63;;;;;;;;;;5074234;28;20241;-67
2021/11/06 07:10:37;;;;;;;12.33;6.23;;;;;;;;;;5075310;28;20223;-68
2021/11/06 07:13:03;;;;;;;10.07;5.97;;;;;;;;;;5077146;28;20216;-67
2021/11/06 07:15:30;;;;;;;12.80;6.37;;;;;;;;;;5073920;28;20304;-67
2021/11/06 07:17:56;;;;;;;9.13;5.23;;;;;;;;;;5073806;28;20201;-66
2021/11/06 07:20:22;;;;;;;10.27;5.87;;;;;;;;;;5072984;28;20578;-66
2021/11/06 07:22:49;;;;;;;11.40;5.27;;;;;;;;;;5073613;28;20201;-67
2021/11/06 07:25:15;;;;;;;12.03;6.37;;;;;;;;;;5073354;28;20599;-68
2021/11/06 07:27:42;;;;;;;14.03;6.47;;;;;;;;;;5073328;28;20816;-68
2021/11/06 07:30:09;;;;;;;9.93;5.87;;;;;;;;;;5072754;28;20205;-67
2021/11/06 07:32:35;;;;;;;12.17;6.43;;;;;;;;;;5073315;28;20708;-67
2021/11/06 07:35:02;;;;;;;10.53;5.87;;;;;;;;;;5071956;28;20686;-67
2021/11/06 07:37:28;;;;;;;15.80;6.60;;;;;;;;;;5073233;28;20229;-66
2021/11/06 07:39:54;;;;;;;18.10;6.67;;;;;;;;;;5071006;28;20228;-66
2021/11/06 07:42:21;;;;;;;17.00;7.67;;;;;;;;;;5073437;28;20317;-68
2021/11/06 07:44:47;;;;;;;12.93;6.10;;;;;;;;;;5073324;28;20221;-68
2021/11/06 07:47:14;;;;;;;14.50;7.80;;;;;;;;;;5062948;28;20560;-67
2021/11/06 07:49:40;;;;;;;12.50;5.90;;;;;;;;;;5052421;28;20213;-68
2021/11/06 07:52:06;;;;;;;13.10;6.47;;;;;;;;;;5052892;28;20595;-66
2021/11/06 07:54:33;;;;;;;16.57;6.93;;;;;;;;;;5052510;28;20614;-67
2021/11/06 07:57:00;;;;;;;15.90;7.27;;;;;;;;;;5052834;28;20682;-69
2021/11/06 07:59:26;;;;;;;17.77;7.43;;;;;;;;;;5067520;28;20216;-67
2021/11/06 08:01:53;;;;;;;15.43;6.57;;;;;;;;;;5072705;28;20311;-68
2021/11/06 08:04:20;;;;;;;16.17;7.53;;;;;;;;;;5072781;28;20263;-69
2021/11/06 08:06:46;;;;;;;13.00;6.03;;;;;;;;;;5072665;28;20288;-67
2021/11/06 08:09:13;;;;;;;13.73;6.53;;;;;;;;;;5072561;28;20201;-67
2021/11/06 08:11:40;;;;;;;16.63;7.50;;;;;;;;;;5072065;28;20209;-66
2021/11/06 08:14:06;;;;;;;15.10;7.67;;;;;;;;;;5072594;28;20225;-67
2021/11/06 08:16:32;;;;;;;17.40;7.83;;;;;;;;;;5072341;28;20683;-67
2021/11/06 08:18:59;;;;;;;18.20;8.13;;;;;;;;;;5072415;28;20224;-67
2021/11/06 08:21:25;;;;;;;21.83;8.37;;;;;;;;;;5071533;28;20369;-67
2021/11/06 08:23:52;;;;;;;16.93;7.53;;;;;;;;;;5072025;28;20201;-67
2021/11/06 08:26:18;;;;;;;15.63;7.60;;;;;;;;;;5070752;28;20225;-67
2021/11/06 08:28:44;;;;;;;14.40;6.80;;;;;;;;;;5071850;28;20212;-67
2021/11/06 08:31:11;;;;;;;18.23;7.43;;;;;;;;;;5069723;28;20853;-68
2021/11/06 08:33:37;;;;;;;18.50;7.63;;;;;;;;;;5071089;28;20231;-68
2021/11/06 08:36:04;;;;;;;16.33;7.60;;;;;;;;;;5071559;28;20291;-70
2021/11/06 08:38:32;;;;;;;15.53;7.00;;;;;;;;;;5071615;28;20216;-68
2021/11/06 08:40:59;;;;;;;15.27;7.10;;;;;;;;;;5070894;28;20723;-67
2021/11/06 08:43:26;;;;;;;19.10;7.30;;;;;;;;;;5071238;28;20217;-67
2021/11/06 08:45:55;;;;;;;18.57;7.67;;;;;;;;;;5071580;28;20257;-68
2021/11/06 08:48:22;;;;;;;16.73;8.37;;;;;;;;;;5053211;28;20574;-68
2021/11/06 08:50:48;;;;;;;24.03;9.10;;;;;;;;;;5055895;28;20644;-68
2021/11/06 08:53:14;;;;;;;20.90;8.83;;;;;;;;;;5070627;28;20201;-68
2021/11/06 08:55:41;;;;;;;24.23;8.63;;;;;;;;;;5070598;28;20302;-68
2021/11/06 08:58:07;;;;;;;19.70;8.93;;;;;;;;;;5070702;28;20231;-67
2021/11/06 09:00:39;;;;;;;19.37;8.47;;;;;;;;;;5070316;28;20205;-67
2021/11/06 09:03:08;;;;;;;20.27;9.13;;;;;;;;;;5071121;28;20205;-68
2021/11/06 09:05:34;;;;;;;21.17;9.40;;;;;;;;;;5070370;28;20237;-69
2021/11/06 09:08:20;;;;;;;23.67;9.13;;;;;;;;;;5070951;28;20696;-70
2021/11/06 09:10:47;;;;;;;19.73;8.20;;;;;;;;;;5070116;28;20761;-69
2021/11/06 09:13:14;;;;;;;22.30;9.43;;;;;;;;;;5070807;28;20193;-72
2021/11/06 09:15:40;;;;;;;21.60;8.83;;;;;;;;;;5070953;28;20235;-69
2021/11/06 09:18:07;;;;;;;22.17;9.33;;;;;;;;;;5070353;28;20208;-70
2021/11/06 09:20:34;;;;;;;19.20;8.83;;;;;;;;;;5070090;28;20232;-69
2021/11/06 09:23:00;;;;;;;22.13;9.53;;;;;;;;;;5053167;28;20212;-71
2021/11/06 09:25:27;;;;;;;20.47;8.83;;;;;;;;;;5070741;28;20221;-71
2021/11/06 09:27:53;;;;;;;20.20;9.10;;;;;;;;;;5070885;28;20209;-72
2021/11/06 09:30:20;;;;;;;18.80;8.93;;;;;;;;;;5069621;28;20205;-69
2021/11/06 09:32:46;;;;;;;18.90;9.00;;;;;;;;;;5070797;28;20237;-71
2021/11/06 09:35:13;;;;;;;16.47;8.10;;;;;;;;;;5070808;28;20225;-67
2021/11/06 09:37:39;;;;;;;23.60;9.17;;;;;;;;;;5070705;28;20209;-68
2021/11/06 09:40:08;;;;;;;18.67;8.87;;;;;;;;;;5068450;28;20205;-67
2021/11/06 09:42:35;;;;;;;19.10;9.10;;;;;;;;;;5081146;28;20265;-68
2021/11/06 09:45:02;;;;;;;16.10;8.23;;;;;;;;;;5087756;28;20224;-68
2021/11/06 09:47:28;;;;;;;17.63;8.17;;;;;;;;;;5091895;28;20235;-68
2021/11/06 09:49:55;;;;;;;19.17;9.47;;;;;;;;;;5094149;28;20360;-70
2021/11/06 09:52:21;;;;;;;19.50;9.27;;;;;;;;;;5088020;28;20282;-72
2021/11/06 09:54:47;;;;;;;18.83;9.57;;;;;;;;;;5076014;28;20675;-67
2021/11/06 09:57:14;;;;;;;16.80;7.97;;;;;;;;;;5080849;28;20205;-67
2021/11/06 09:59:40;;;;;;;19.23;8.20;;;;;;;;;;5072730;28;20692;-67
2021/11/06 10:02:07;;;;;;;19.33;9.57;;;;;;;;;;5073998;28;20631;-72
2021/11/06 10:04:34;;;;;;;15.27;8.60;;;;;;;;;;5074191;28;20671;-69
2021/11/06 10:07:14;;;;;;;19.73;9.43;;;;;;;;;;5072909;28;20290;-70
2021/11/06 10:09:40;;;;;;;21.57;9.60;;;;;;;;;;5073270;28;20287;-69
2021/11/06 10:12:06;;;;;;;25.30;9.83;;;;;;;;;;5073454;28;20766;-71
2021/11/06 10:14:34;;;;;;;21.00;9.80;;;;;;;;;;5073557;28;20645;-69
2021/11/06 10:17:01;;;;;;;19.87;9.50;;;;;;;;;;5073751;28;20236;-70
2021/11/06 10:19:29;;;;;;;19.40;9.07;;;;;;;;;;5073874;28;20251;-69
2021/11/06 10:22:10;;;;;;;19.27;9.73;;;;;;;;;;5074129;28;20295;-71
2021/11/06 10:24:36;;;;;;;19.80;8.60;;;;;;;;;;5073558;28;20263;-71
2021/11/06 10:27:13;;;;;;;20.07;10.13;;;;;;;;;;5073454;28;20221;-70
2021/11/06 10:29:40;;;;;;;21.93;10.40;;;;;;;;;;5071589;28;20227;-68
2021/11/06 10:32:06;;;;;;;19.07;9.90;;;;;;;;;;5073666;28;20801;-71
2021/11/06 10:34:34;;;;;;;20.70;10.27;;;;;;;;;;5074368;28;20658;-71
2021/11/06 10:37:19;;;;;;;20.77;9.77;;;;;;;;;;5073315;28;20209;-71
2021/11/06 10:39:59;;;;;;;22.07;9.33;;;;;;;;;;5072016;28;20209;-70
2021/11/06 10:42:26;;;;;;;22.30;10.43;;;;;;;;;;5073511;28;20197;-71
2021/11/06 10:45:12;;;;;;;17.90;10.07;;;;;;;;;;5073816;28;20391;-69
2021/11/06 10:47:59;;;;;;;24.23;10.27;;;;;;;;;;5073211;28;20201;-70
2021/11/06 10:50:55;;;;;;;27.70;11.93;;;;;;;;;;5072677;28;20267;-70
2021/11/06 10:53:40;;;;;;;23.10;10.77;;;;;;;;;;5058968;28;20300;-70
2021/11/06 10:56:13;;;;;;;23.90;11.53;;;;;;;;;;5073285;28;20209;-70
2021/11/06 10:58:40;;;;;;;18.47;9.80;;;;;;;;;;5073096;28;20301;-70
2021/11/06 11:01:08;;;;;;;18.87;9.40;;;;;;;;;;5073540;28;20217;-70
2021/11/06 11:03:45;;;;;;;19.50;9.87;;;;;;;;;;5073133;28;20211;-71
2021/11/06 11:06:13;;;;;;;18.13;9.10;;;;;;;;;;5072237;28;20873;-70
2021/11/06 11:08:49;;;;;;;17.50;8.47;;;;;;;;;;5072310;28;20627;-69
2021/11/06 11:11:21;;;;;;;27.63;10.90;;;;;;;;;;5063743;28;20540;-69
2021/11/06 11:13:51;;;;;;;22.80;9.93;;;;;;;;;;5063401;28;20269;-69
2021/11/06 11:16:18;;;;;;;23.20;10.67;;;;;;;;;;5058047;28;20288;-70
2021/11/06 11:18:46;;;;;;;19.63;10.53;;;;;;;;;;5061284;28;20297;-71
2021/11/06 11:21:14;;;;;;;20.23;11.20;;;;;;;;;;5070620;28;20601;-69
2021/11/06 11:23:42;;;;;;;21.57;10.17;;;;;;;;;;5072299;28;20201;-70
2021/11/06 11:26:08;;;;;;;17.80;9.30;;;;;;;;;;5072659;28;20317;-69
2021/11/06 11:28:35;;;;;;;18.50;9.63;;;;;;;;;;5071751;28;20761;-72
2021/11/06 11:31:02;;;;;;;22.43;9.97;;;;;;;;;;5064992;28;20285;-69
2021/11/06 11:33:34;;;;;;;23.63;10.90;;;;;;;;;;5062865;28;20209;-68
2021/11/06 11:36:00;;;;;;;19.63;11.03;;;;;;;;;;5052039;28;20320;-70
2021/11/06 11:38:27;;;;;;;19.93;10.83;;;;;;;;;;5051526;28;20217;-69
2021/11/06 11:41:04;;;;;;;21.53;11.47;;;;;;;;;;5064073;28;20201;-70
2021/11/06 11:43:42;;;;;;;25.67;11.97;;;;;;;;;;5071914;28;20205;-69
2021/11/06 11:46:12;;;;;;;20.73;10.83;;;;;;;;;;5071732;28;21057;-72
2021/11/06 11:48:38;;;;;;;22.07;10.97;;;;;;;;;;5071952;28;20209;-69
2021/11/06 11:51:05;;;;;;;24.10;11.43;;;;;;;;;;5069782;28;20207;-68
2021/11/06 11:53:35;;;;;;;18.90;10.33;;;;;;;;;;5071447;28;20292;-67
2021/11/06 11:56:14;;;;;;;21.47;11.50;;;;;;;;;;5069962;28;20253;-67
2021/11/06 11:58:40;;;;;;;25.73;12.97;;;;;;;;;;5071962;28;20237;-68
2021/11/06 12:01:15;;;;;;;22.60;10.10;;;;;;;;;;5068890;28;20201;-68
2021/11/06 12:03:43;;;;;;;22.97;11.57;;;;;;;;;;5069913;28;20197;-69
2021/11/06 12:06:20;;;;;;;22.83;11.07;;;;;;;;;;5071571;28;20670;-69
2021/11/06 12:08:47;;;;;;;20.37;10.30;;;;;;;;;;5069816;28;20614;-68
2021/11/06 12:11:18;;;;;;;20.87;10.90;;;;;;;;;;5069525;28;20236;-69
2021/11/06 12:13:50;;;;;;;21.03;10.37;;;;;;;;;;5069915;28;20877;-69
2021/11/06 12:16:18;;;;;;;19.53;10.70;;;;;;;;;;5069347;28;20237;-69
2021/11/06 12:18:46;;;;;;;22.90;10.60;;;;;;;;;;5068701;28;20224;-68
2021/11/06 12:24:05;;;;;;;22.83;12.03;;;;;;;;;;5069093;28;20240;-68
2021/11/06 12:26:32;;;;;;;22.90;11.67;;;;;;;;;;5059828;28;20247;-68
2021/11/06 12:29:01;;;;;;;25.40;12.37;;;;;;;;;;5069162;28;20202;-69
2021/11/06 12:31:31;;;;;;;24.10;12.27;;;;;;;;;;5067978;28;20568;-70
2021/11/06 12:33:58;;;;;;;24.37;13.20;;;;;;;;;;5067982;28;20320;-69
2021/11/06 12:36:25;;;;;;;24.43;12.17;;;;;;;;;;5071214;28;20201;-69
2021/11/06 12:38:51;;;;;;;23.60;12.03;;;;;;;;;;5072392;28;20690;-69
2021/11/06 12:41:28;;;;;;;24.30;13.07;;;;;;;;;;5072461;28;20255;-69
2021/11/06 12:43:54;;;;;;;22.73;11.70;;;;;;;;;;5072758;28;20225;-68
2021/11/06 12:46:24;;;;;;;23.00;12.20;;;;;;;;;;5070127;28;20719;-68
2021/11/06 12:48:51;;;;;;;22.87;12.10;;;;;;;;;;5070688;28;20280;-68
2021/11/06 12:51:19;;;;;;;19.40;11.33;;;;;;;;;;5070351;28;20216;-68
2021/11/06 12:53:48;;;;;;;23.30;11.73;;;;;;;;;;5070701;28;20292;-68
2021/11/06 12:56:15;;;;;;;22.23;11.93;;;;;;;;;;5070673;28;20219;-69
2021/11/06 12:58:44;;;;;;;22.33;11.23;;;;;;;;;;5070385;28;20612;-69
2021/11/06 13:01:26;;;;;;;22.37;9.73;;;;;;;;;;5069994;28;20292;-67
2021/11/06 13:03:53;;;;;;;23.60;11.47;;;;;;;;;;5070491;28;20201;-69
2021/11/06 13:06:19;;;;;;;22.50;11.33;;;;;;;;;;5068843;28;20265;-68
2021/11/06 13:08:58;;;;;;;19.40;10.07;;;;;;;;;;5070223;28;20197;-68
2021/11/06 13:11:25;;;;;;;21.67;11.63;;;;;;;;;;5069246;28;20208;-68
2021/11/06 13:13:52;;;;;;;23.03;11.17;;;;;;;;;;5070368;28;20288;-68
2021/11/06 13:16:18;;;;;;;17.63;10.00;;;;;;;;;;5070222;28;20278;-68
2021/11/06 13:18:44;;;;;;;17.87;10.40;;;;;;;;;;5070117;28;20739;-69
2021/11/06 13:21:11;;;;;;;17.93;10.23;;;;;;;;;;5068385;28;20293;-67
2021/11/06 13:23:37;;;;;;;21.80;11.07;;;;;;;;;;5069828;28;20212;-67
2021/11/06 13:26:05;;;;;;;19.47;10.57;;;;;;;;;;5069039;28;20213;-67
2021/11/06 13:28:35;;;;;;;20.90;10.83;;;;;;;;;;5070197;28;20204;-66
2021/11/06 13:31:06;;;;;;;22.10;11.17;;;;;;;;;;5068004;28;20296;-67
2021/11/06 13:33:42;;;;;;;19.67;10.57;;;;;;;;;;5070056;28;20293;-67
2021/11/06 13:36:17;;;;;;;19.10;10.40;;;;;;;;;;5070022;28;20394;-66
2021/11/06 13:38:48;;;;;;;17.87;10.00;;;;;;;;;;5070003;28;20204;-67
2021/11/06 13:41:31;;;;;;;19.33;9.47;;;;;;;;;;5067983;28;20674;-67
2021/11/06 13:44:02;;;;;;;19.60;10.57;;;;;;;;;;5067904;28;20205;-67
2021/11/06 13:46:34;;;;;;;20.20;11.20;;;;;;;;;;5069032;28;20706;-66
2021/11/06 13:49:06;;;;;;;19.50;10.23;;;;;;;;;;5069085;28;20212;-67
2021/11/06 13:51:45;;;;;;;20.00;11.57;;;;;;;;;;5069512;28;20295;-67
2021/11/06 13:54:15;;;;;;;19.07;10.13;;;;;;;;;;5069338;28;20229;-67
2021/11/06 13:56:56;;;;;;;23.57;10.70;;;;;;;;;;5069943;28;20211;-66
2021/11/06 13:59:35;;;;;;;22.63;11.07;;;;;;;;;;5069300;28;20298;-67
2021/11/06 14:02:05;;;;;;;18.10;9.50;;;;;;;;;;5068250;28;20211;-68
2021/11/06 14:04:32;;;;;;;17.53;10.07;;;;;;;;;;5069424;28;20221;-68
2021/11/06 14:07:09;;;;;;;17.37;9.60;;;;;;;;;;5070044;28;20316;-69
2021/11/06 14:09:44;;;;;;;15.47;9.23;;;;;;;;;;5069061;28;20228;-70
2021/11/06 14:12:10;;;;;;;16.73;9.60;;;;;;;;;;5069763;28;20677;-70
2021/11/06 14:14:47;;;;;;;23.83;10.77;;;;;;;;;;5068917;28;20217;-69
2021/11/06 14:17:14;;;;;;;19.33;9.70;;;;;;;;;;5069901;28;20295;-69
2021/11/06 14:19:55;;;;;;;20.60;11.20;;;;;;;;;;5069617;28;20220;-68
2021/11/06 14:22:33;;;;;;;16.90;9.73;;;;;;;;;;5069820;28;20886;-69
2021/11/06 14:25:00;;;;;;;20.97;11.03;;;;;;;;;;5068384;28;20356;-68
2021/11/06 14:27:27;;;;;;;17.47;9.60;;;;;;;;;;5069854;28;20228;-68
2021/11/06 14:30:08;;;;;;;15.17;8.83;;;;;;;;;;5069007;28;20217;-68
2021/11/06 14:32:36;;;;;;;17.73;9.80;;;;;;;;;;5069737;28;20568;-69
2021/11/06 14:35:10;;;;;;;17.77;9.63;;;;;;;;;;5069422;28;20232;-69
2021/11/06 14:37:37;;;;;;;18.53;10.33;;;;;;;;;;5069511;28;20259;-70
2021/11/06 14:40:06;;;;;;;17.83;10.40;;;;;;;;;;5068440;28;20296;-68
2021/11/06 14:42:35;;;;;;;17.57;9.30;;;;;;;;;;5072033;28;20292;-69
2021/11/06 14:45:05;;;;;;;17.40;9.33;;;;;;;;;;5071699;28;20229;-69
2021/11/06 14:47:32;;;;;;;19.63;10.73;;;;;;;;;;5073370;28;20765;-69
2021/11/06 14:50:20;;;;;;;20.87;10.13;;;;;;;;;;5074614;28;20292;-68
2021/11/06 14:52:47;;;;;;;18.30;10.03;;;;;;;;;;5071498;28;20270;-68
2021/11/06 14:55:14;;;;;;;17.37;10.40;;;;;;;;;;5072461;28;20277;-67
2021/11/06 14:57:49;;;;;;;24.43;11.60;;;;;;;;;;5070615;28;20212;-67
2021/11/06 15:00:25;;;;;;;23.17;12.40;;;;;;;;;;5071600;28;20701;-69
2021/11/06 15:02:56;;;;;;;21.60;11.40;;;;;;;;;;5070282;28;20205;-68
2021/11/06 15:05:30;;;;;;;21.83;12.13;;;;;;;;;;5072641;28;20229;-67
2021/11/06 15:07:58;;;;;;;23.97;12.63;;;;;;;;;;5072680;28;20355;-67
2021/11/06 15:10:24;;;;;;;19.87;11.60;;;;;;;;;;5071256;28;20236;-68